METAR Data
IDs: Format: Raw Decoded Include TAF

Data at: 1313 UTC 24 May 2019

PHNL 241253Z 31005KT 10SM FEW023 24/19 A3006 RMK AO2 SLP177 T02440194 $
PHNL 241153Z 36003KT 10SM FEW024 25/19 A3006 RMK AO2 SLP178 T02500189 10283 20250 58009 $

PHNL 241146Z 2412/2518 VRB06KT P6SM SCT025
  FM242000 11011KT P6SM FEW030 SCT050
  FM250600 07011KT P6SM FEW025 SCT045


PHOG 241254Z AUTO 14005KT 10SM CLR 23/17 A3004 RMK AO2 SLP177 T02280172 TSNO
PHOG 241154Z AUTO 14003KT 10SM BKN050 22/18 A3004 RMK AO2 SLP178 T02220178 10272 20217 56010 TSNO

PHOG 241146Z 2412/2512 05011KT P6SM FEW025 SCT045
  FM242000 02015G22KT P6SM FEW030 SCT050
  FM250600 05011G17KT P6SM SCT030 SCT050 AMD LTD TO VIS AND WIND TIL 241600


PHKO 241253Z AUTO 05003KT 10SM CLR 24/18 A3002 RMK AO2 SLP165 T02390183 TSNO
PHKO 241153Z AUTO 06005KT 10SM CLR 24/19 A3003 RMK AO2 SLP168 T02440189 10272 20244 58007 TSNO

PHKO 241146Z 2412/2512 VRB06KT P6SM SCT025 SCT050
  FM242000 24010KT P6SM FEW025 SCT060
  FM250600 VRB06KT P6SM SCT025 SCT060


PHTO 241301Z AUTO 00000KT 6SM -RA BR BKN014 OVC022 22/21 A3008 RMK AO2 P0000 T02220206 TSNO
PHTO 241253Z AUTO 00000KT 4SM -RA BR SCT012 BKN018 OVC023 22/21 A3008 RMK AO2 SLP183 P0005 T02220206 TSNO
PHTO 241248Z AUTO 23003KT 5SM -RA BR FEW009 BKN014 OVC020 22/21 A3007 RMK AO2 P0005 TSNO
PHTO 241223Z AUTO 25005KT 5SM -RA BR FEW010 BKN016 OVC021 22/20 A3008 RMK AO2 P0004 T02220200 TSNO
PHTO 241206Z AUTO 21004KT 2 1/2SM -RA BR OVC019 22/20 A3008 RMK AO2 P0003 T02170200 TSNO
PHTO 241153Z AUTO 18003KT 1 1/2SM RA BR BKN021 OVC028 22/21 A3008 RMK AO2 RAB35 SLP185 P0006 60017 70021 T02220206 10256 20222 58009 TSNO
PHTO 241143Z AUTO 00000KT 1 3/4SM RA BR BKN023 OVC031 22/21 A3008 RMK AO2 RAB35 P0001 T02220211 TSNO
PHTO 241139Z AUTO 00000KT 3SM -RA BR BKN023 BKN027 OVC034 23/21 A3008 RMK AO2 RAB35 P0000 T02280206 TSNO
PHTO 241129Z AUTO 25005KT 10SM SCT025 OVC032 23/21 A3008 RMK AO2 T02280206 TSNO

PHTO 241146Z 2412/2512 VRB06KT P6SM VCSH SCT025 BKN030
  TEMPO 2412/2414 3SM SHRA BR BKN015 OVC025
  FM242100 11012KT P6SM VCSH SCT025 BKN045
  FM250600 VRB06KT P6SM VCSH SCT025 BKN045


PHLI 241253Z AUTO 08008KT 10SM SCT015 BKN022 A3007 RMK AO2 SLPNO TSNO $
PHLI 241153Z AUTO 08009KT 10SM SCT014 BKN020 BKN055 A3008 RMK AO2 SLPNO 56007 TSNO $
PHLI 241148Z AUTO 07009KT 10SM SCT014 BKN020 BKN055 A3008 RMK AO2 TSNO $
PHLI 241128Z AUTO 08009KT 10SM FEW012 FEW022 BKN055 A3008 RMK AO2 TSNO $

PHLI 241146Z 2412/2512 08011KT P6SM FEW030 SCT040